createdAt,value
2019-05-22T00:02:30.326Z,23.78
2019-05-22T00:05:19.507Z,23.65
2019-05-22T00:07:53.602Z,23.58
2019-05-22T00:10:31.330Z,23.54
2019-05-22T00:13:08.278Z,23.96
2019-05-22T00:15:42.664Z,23.72
2019-05-22T00:18:16.875Z,23.65
2019-05-22T00:20:51.088Z,23.63
2019-05-22T00:23:27.186Z,23.64
2019-05-22T00:26:02.197Z,23.61
2019-05-22T00:28:38.896Z,23.62
2019-05-22T00:31:14.750Z,23.66
2019-05-22T00:33:49.884Z,23.72
2019-05-22T00:36:24.529Z,23.74
2019-05-22T00:38:58.518Z,23.75
2019-05-22T00:41:35.607Z,24.17
2019-05-22T00:44:13.404Z,24.08
2019-05-22T00:46:48.682Z,23.66
2019-05-22T00:49:25.455Z,23.58
2019-05-22T00:52:25.739Z,23.54
2019-05-22T00:55:15.727Z,23.49
2019-05-22T00:58:00.076Z,23.46
2019-05-22T01:00:46.278Z,23.40
2019-05-22T01:03:25.927Z,23.40
2019-05-22T01:06:00.441Z,23.44
2019-05-22T01:08:38.040Z,23.47
2019-05-22T01:11:15.217Z,23.46
2019-05-22T01:13:49.355Z,23.47
2019-05-22T01:16:25.724Z,23.48
2019-05-22T01:19:00.818Z,23.49
2019-05-22T01:21:35.450Z,23.47
2019-05-22T01:24:11.512Z,23.46
2019-05-22T01:26:47.508Z,23.45
2019-05-22T01:29:22.317Z,23.45
2019-05-22T01:32:02.254Z,23.43
2019-05-22T01:34:37.393Z,23.41
2019-05-22T01:37:16.038Z,23.37
2019-05-22T01:40:13.770Z,23.38
2019-05-22T01:42:48.969Z,23.35
2019-05-22T01:45:25.684Z,23.30
2019-05-22T01:48:04.032Z,23.77
2019-05-22T01:50:58.254Z,23.72
2019-05-22T01:53:38.368Z,23.54
2019-05-22T01:56:14.155Z,23.55
2019-05-22T01:58:48.580Z,23.52
2019-05-22T02:01:27.429Z,23.68
2019-05-22T02:04:02.701Z,23.99
2019-05-22T02:06:37.841Z,23.69
2019-05-22T02:09:39.306Z,23.56
2019-05-22T02:12:28.888Z,23.53
2019-05-22T02:15:03.915Z,23.50
2019-05-22T02:17:38.317Z,23.48
2019-05-22T02:20:14.898Z,23.37
2019-05-22T02:22:50.722Z,23.50
2019-05-22T02:25:25.885Z,24.33
2019-05-22T02:28:01.525Z,24.00
2019-05-22T02:30:36.715Z,23.61
2019-05-22T02:33:11.041Z,23.41
2019-05-22T02:35:45.942Z,23.31
2019-05-22T02:38:20.139Z,23.34
2019-05-22T02:40:55.810Z,23.39
2019-05-22T02:43:30.946Z,23.36
2019-05-22T02:46:05.438Z,23.40
2019-05-22T02:48:42.480Z,23.77
2019-05-22T02:51:16.731Z,23.71
2019-05-22T02:53:53.646Z,23.48
2019-05-22T02:56:28.215Z,23.30
2019-05-22T02:59:02.860Z,23.66
2019-05-22T03:01:38.296Z,23.91
2019-05-22T03:04:12.405Z,23.60
2019-05-22T03:06:47.492Z,23.62
2019-05-22T03:09:30.572Z,23.63
2019-05-22T03:12:09.599Z,23.91
2019-05-22T03:14:43.925Z,24.03
2019-05-22T03:17:31.411Z,23.66
2019-05-22T03:20:15.000Z,23.58
2019-05-22T03:23:15.525Z,23.56
2019-05-22T03:25:49.759Z,23.55
2019-05-22T03:28:24.387Z,23.57
2019-05-22T03:30:58.403Z,23.67
2019-05-22T03:33:32.342Z,23.67
2019-05-22T03:36:16.315Z,24.20
2019-05-22T03:38:51.485Z,24.97
2019-05-22T03:41:26.665Z,25.40
2019-05-22T03:44:02.028Z,25.66
2019-05-22T03:46:44.918Z,25.87
2019-05-22T03:49:30.562Z,26.01
2019-05-22T03:52:01.060Z,26.13
2019-05-22T03:54:36.097Z,26.25
2019-05-22T03:57:11.105Z,26.33
2019-05-22T03:59:46.040Z,26.38
2019-05-22T04:02:20.794Z,26.43
2019-05-22T04:04:55.135Z,26.48
2019-05-22T04:07:29.587Z,26.55
2019-05-22T04:10:06.037Z,26.59
2019-05-22T04:12:41.081Z,26.64
2019-05-22T04:15:16.037Z,26.72
2019-05-22T04:17:50.522Z,26.80
2019-05-22T04:20:25.533Z,26.85
2019-05-22T04:23:02.224Z,26.91
2019-05-22T04:25:36.272Z,26.95
2019-05-22T04:28:11.013Z,26.99
2019-05-22T04:30:46.250Z,27.04
2019-05-22T04:33:21.938Z,27.05
2019-05-22T04:35:55.900Z,27.11
2019-05-22T04:38:30.491Z,27.15
2019-05-22T04:41:06.972Z,27.18
2019-05-22T04:43:41.801Z,27.20
2019-05-22T04:46:16.554Z,27.25
2019-05-22T04:48:50.860Z,27.28
2019-05-22T04:51:33.282Z,27.29
2019-05-22T04:54:07.458Z,27.31
2019-05-22T04:56:41.839Z,27.34
2019-05-22T04:59:17.037Z,27.36
2019-05-22T05:01:51.089Z,27.40
2019-05-22T05:04:26.496Z,27.45
2019-05-22T05:07:00.656Z,27.54
2019-05-22T05:09:34.951Z,27.55
2019-05-22T05:12:10.627Z,27.50
2019-05-22T05:14:44.815Z,27.86
2019-05-22T05:17:19.402Z,27.78
2019-05-22T05:19:53.756Z,27.79
2019-05-22T05:22:44.147Z,27.78
2019-05-22T05:25:18.926Z,27.81
2019-05-22T05:27:53.137Z,27.82
2019-05-22T05:30:28.360Z,27.85
2019-05-22T05:33:02.838Z,27.86
2019-05-22T05:35:38.902Z,27.86
2019-05-22T05:38:14.688Z,27.89
2019-05-22T05:40:49.643Z,27.93
2019-05-22T05:43:26.277Z,27.98
2019-05-22T05:46:00.789Z,28.08
2019-05-22T05:48:35.716Z,28.16
2019-05-22T05:51:43.782Z,28.15
2019-05-22T05:54:20.660Z,28.13
2019-05-22T05:56:56.162Z,28.13
2019-05-22T05:59:32.372Z,28.15
2019-05-22T06:02:07.168Z,28.17
2019-05-22T06:04:42.163Z,28.17
2019-05-22T06:07:29.119Z,28.18
2019-05-22T06:10:43.551Z,28.20
2019-05-22T06:13:17.495Z,28.19
2019-05-22T06:16:25.521Z,28.17
2019-05-22T06:18:59.637Z,28.18
2019-05-22T06:21:34.664Z,28.18
2019-05-22T06:24:30.629Z,28.20
2019-05-22T06:27:31.959Z,28.21
2019-05-22T06:30:10.995Z,28.26
2019-05-22T06:33:26.628Z,28.28
2019-05-22T06:36:01.794Z,28.29
2019-05-22T06:39:00.645Z,28.34
2019-05-22T06:41:38.205Z,28.34
2019-05-22T06:44:43.649Z,28.36
2019-05-22T06:47:24.063Z,28.38
2019-05-22T06:49:59.288Z,28.47
2019-05-22T06:52:33.594Z,28.53
2019-05-22T06:55:08.201Z,28.52
2019-05-22T06:57:42.489Z,28.52
2019-05-22T07:00:24.547Z,28.58
2019-05-22T07:02:58.800Z,28.65
2019-05-22T07:05:33.577Z,28.61
2019-05-22T07:08:08.028Z,28.62
2019-05-22T07:10:44.128Z,28.65
2019-05-22T07:13:20.578Z,28.65
2019-05-22T07:15:56.239Z,28.66
2019-05-22T07:18:32.793Z,28.67
2019-05-22T07:21:07.348Z,28.78
2019-05-22T07:23:42.733Z,28.86
2019-05-22T07:26:17.129Z,28.77
2019-05-22T07:28:51.695Z,28.67
2019-05-22T07:31:29.680Z,28.63
2019-05-22T07:34:04.521Z,28.59
2019-05-22T07:36:38.730Z,28.57
2019-05-22T07:39:13.604Z,28.55
2019-05-22T07:41:48.078Z,28.55
2019-05-22T07:44:22.495Z,28.55
2019-05-22T07:46:57.377Z,28.55
2019-05-22T07:49:33.502Z,28.55
2019-05-22T07:52:09.124Z,28.56
2019-05-22T07:54:43.477Z,28.56
2019-05-22T07:57:21.643Z,28.55
2019-05-22T07:59:55.739Z,28.55
2019-05-22T08:02:32.899Z,28.57
2019-05-22T08:05:08.091Z,28.58
2019-05-22T08:07:42.870Z,29.04
2019-05-22T08:10:18.879Z,29.10
2019-05-22T08:12:53.359Z,29.27
2019-05-22T08:15:30.512Z,29.27
2019-05-22T08:18:05.338Z,29.32
2019-05-22T08:20:40.308Z,29.42
2019-05-22T08:23:14.711Z,29.45
2019-05-22T08:25:49.606Z,29.45
2019-05-22T08:28:25.546Z,29.48
2019-05-22T08:30:59.716Z,29.53
2019-05-22T08:33:35.887Z,29.60
2019-05-22T08:36:12.706Z,29.60
2019-05-22T08:38:48.361Z,29.53
2019-05-22T08:41:26.864Z,29.55
2019-05-22T08:44:15.302Z,29.53
2019-05-22T08:46:38.243Z,29.50
2019-05-22T08:49:12.927Z,29.50
2019-05-22T08:51:50.705Z,29.42
2019-05-22T08:54:25.083Z,29.42
2019-05-22T08:56:59.401Z,29.49
2019-05-22T08:59:33.781Z,29.51
2019-05-22T09:02:10.367Z,29.54
2019-05-22T09:04:45.055Z,29.55
2019-05-22T09:07:19.871Z,29.57
2019-05-22T09:09:54.134Z,29.60
2019-05-22T09:12:28.211Z,29.61
2019-05-22T09:15:04.800Z,29.63
2019-05-22T09:17:39.114Z,29.67
2019-05-22T09:20:13.547Z,29.69
2019-05-22T09:22:48.612Z,29.73
2019-05-22T09:25:23.263Z,29.70
2019-05-22T09:27:58.549Z,29.68
2019-05-22T09:30:33.492Z,29.73
2019-05-22T09:33:09.440Z,29.75
2019-05-22T09:35:44.304Z,29.80
2019-05-22T09:38:18.632Z,29.80
2019-05-22T09:40:52.988Z,29.82
2019-05-22T09:43:27.322Z,29.84
2019-05-22T09:46:02.052Z,29.87
2019-05-22T09:48:38.122Z,29.90
2019-05-22T09:51:12.532Z,29.82
2019-05-22T09:53:48.049Z,28.23
2019-05-22T09:56:22.601Z,26.97
2019-05-22T09:58:57.099Z,26.26
2019-05-22T10:01:31.665Z,25.89
2019-05-22T10:04:07.558Z,25.62
2019-05-22T10:06:42.380Z,25.30
2019-05-22T10:09:16.535Z,25.04
2019-05-22T10:11:51.052Z,24.87
2019-05-22T10:14:25.918Z,24.75
2019-05-22T10:17:01.734Z,24.71
2019-05-22T10:19:36.291Z,24.58
2019-05-22T10:22:11.497Z,24.50
2019-05-22T10:24:50.170Z,24.42
2019-05-22T10:27:22.750Z,24.36
2019-05-22T10:29:58.011Z,24.30
2019-05-22T10:32:34.262Z,24.24
2019-05-22T10:35:11.893Z,24.18
2019-05-22T10:37:47.027Z,24.17
2019-05-22T10:40:22.302Z,24.12
2019-05-22T10:42:56.746Z,24.08
2019-05-22T10:45:31.299Z,24.03
2019-05-22T11:37:07.103Z,23.83
2019-05-22T11:39:45.065Z,23.91
2019-05-22T11:42:18.686Z,23.86
2019-05-22T11:44:52.928Z,23.88
2019-05-22T11:47:27.584Z,23.88
2019-05-22T11:54:20.280Z,23.79
2019-05-22T11:56:52.916Z,23.76
2019-05-22T11:59:27.936Z,23.78
2019-05-22T12:02:39.682Z,23.68
2019-05-22T12:05:14.855Z,23.64
2019-05-22T12:07:49.866Z,24.43
2019-05-22T12:10:25.168Z,24.18
2019-05-22T12:12:59.942Z,24.05
2019-05-22T12:24:43.704Z,23.98
2019-05-22T12:27:18.366Z,23.97
2019-05-22T12:29:53.419Z,24.02
2019-05-22T12:32:28.411Z,23.85
2019-05-22T12:35:02.946Z,23.99
2019-05-22T12:37:37.267Z,24.04
2019-05-22T12:40:15.023Z,24.03
2019-05-22T12:42:49.374Z,24.03
2019-05-22T12:45:28.676Z,24.02
2019-05-22T12:48:04.616Z,24.04
2019-05-22T12:50:38.820Z,24.00
2019-05-22T12:53:15.246Z,24.00
2019-05-22T12:55:49.383Z,24.04
2019-05-22T12:58:24.570Z,24.01
2019-05-22T13:01:00.472Z,24.03
2019-05-22T13:03:35.904Z,23.81
2019-05-22T13:06:11.181Z,24.22
2019-05-22T13:08:46.213Z,25.15
2019-05-22T13:11:20.862Z,25.98
2019-05-22T13:13:55.430Z,26.52
2019-05-22T13:16:31.475Z,26.88
2019-05-22T13:19:05.694Z,27.14
2019-05-22T13:21:43.490Z,27.38
2019-05-22T13:24:23.082Z,27.62
2019-05-22T13:26:59.371Z,27.74
2019-05-22T13:29:33.488Z,27.87
2019-05-22T13:32:09.823Z,27.98
2019-05-22T13:34:44.803Z,28.07
2019-05-22T13:37:19.077Z,27.93
2019-05-22T13:39:54.172Z,27.85
2019-05-22T13:42:28.822Z,27.80
2019-05-22T13:45:03.002Z,27.76
2019-05-22T13:47:38.475Z,27.74
2019-05-22T13:50:13.585Z,27.74
2019-05-22T13:52:50.179Z,27.75
2019-05-22T13:55:24.790Z,27.77
2019-05-22T13:57:59.604Z,27.78
2019-05-22T14:00:33.834Z,27.81
2019-05-22T14:03:08.787Z,27.84
2019-05-22T14:05:44.003Z,27.87
2019-05-22T14:08:19.649Z,27.89
2019-05-22T14:10:55.352Z,27.92
2019-05-22T14:13:30.739Z,27.95
2019-05-22T14:16:04.654Z,27.97
2019-05-22T14:18:38.878Z,28.00
2019-05-22T14:21:13.219Z,28.03
2019-05-22T14:23:47.395Z,28.08
2019-05-22T14:26:21.518Z,28.10
2019-05-22T14:28:55.398Z,28.12
2019-05-22T14:31:29.652Z,28.15
2019-05-22T14:34:04.621Z,28.18
2019-05-22T14:36:39.119Z,28.20
2019-05-22T14:39:14.730Z,28.23
2019-05-22T14:41:48.879Z,28.26
2019-05-22T14:44:24.192Z,28.28
2019-05-22T14:47:12.315Z,28.30
2019-05-22T14:49:34.374Z,28.33
2019-05-22T14:52:09.180Z,28.36
2019-05-22T14:54:43.497Z,28.37
2019-05-22T14:57:18.197Z,28.41
2019-05-22T14:59:52.303Z,28.43
2019-05-22T15:02:26.941Z,28.44
2019-05-22T15:05:01.168Z,28.47
2019-05-22T15:07:36.331Z,28.50
2019-05-22T15:10:11.550Z,28.52
2019-05-22T15:12:46.632Z,28.52
2019-05-22T15:15:22.813Z,28.55
2019-05-22T15:17:57.064Z,28.58
2019-05-22T15:20:54.357Z,28.60
2019-05-22T15:23:28.674Z,28.62
2019-05-22T15:26:03.281Z,28.64
2019-05-22T15:28:37.871Z,29.35
2019-05-22T15:31:12.097Z,29.35
2019-05-22T15:33:46.485Z,29.38
2019-05-22T15:36:23.452Z,29.38
2019-05-22T15:38:58.491Z,29.39
2019-05-22T15:41:33.472Z,29.43
2019-05-22T15:44:08.886Z,29.43
2019-05-22T15:46:44.071Z,29.49
2019-05-22T15:49:19.977Z,29.20
2019-05-22T15:51:54.120Z,29.20
2019-05-22T15:54:31.451Z,27.90
2019-05-22T15:57:09.656Z,26.74
2019-05-22T15:59:43.633Z,26.04
2019-05-22T16:02:21.870Z,25.42
2019-05-22T16:04:59.732Z,25.07
2019-05-22T16:07:34.419Z,24.78
2019-05-22T16:10:09.045Z,24.53
2019-05-22T16:12:44.017Z,24.42
2019-05-22T16:15:20.262Z,24.32
2019-05-22T16:18:10.565Z,24.20
2019-05-22T16:20:33.371Z,24.07
2019-05-22T16:23:08.099Z,24.05
2019-05-22T16:25:43.148Z,24.04
2019-05-22T16:28:17.597Z,24.09
2019-05-22T16:30:51.801Z,24.12
2019-05-22T16:33:27.079Z,24.09
2019-05-22T16:36:01.271Z,24.06
2019-05-22T16:38:36.831Z,24.03
2019-05-22T16:41:11.043Z,23.97
2019-05-22T16:43:50.058Z,23.81
2019-05-22T16:46:25.689Z,23.95
2019-05-22T16:49:01.195Z,23.97
2019-05-22T16:51:36.484Z,23.95
2019-05-22T16:54:11.315Z,23.92
2019-05-22T16:56:45.554Z,23.92
2019-05-22T16:59:21.174Z,23.91
2019-05-22T17:01:59.351Z,23.91
2019-05-22T17:04:32.008Z,23.89
2019-05-22T17:07:08.529Z,23.91
2019-05-22T17:09:43.964Z,23.97
2019-05-22T17:12:20.088Z,23.98
2019-05-22T17:14:55.147Z,23.95
2019-05-22T17:17:30.156Z,24.03
2019-05-22T17:20:05.675Z,23.99
2019-05-22T17:22:41.047Z,23.98
2019-05-22T17:25:16.933Z,23.98
2019-05-22T17:27:52.819Z,23.99
2019-05-22T17:30:28.163Z,24.03
2019-05-22T17:33:02.994Z,24.05
2019-05-22T17:35:38.346Z,24.16
2019-05-22T17:38:13.603Z,24.12
2019-05-22T17:40:49.638Z,24.08
2019-05-22T17:43:24.135Z,23.93
2019-05-22T17:45:59.673Z,24.02
2019-05-22T17:48:34.985Z,24.06
2019-05-22T17:51:10.279Z,24.05
2019-05-22T17:53:44.621Z,24.10
2019-05-22T17:56:19.523Z,24.08
2019-05-22T17:58:54.091Z,24.09
2019-05-22T18:01:28.367Z,24.08
2019-05-22T18:04:02.925Z,24.10
2019-05-22T18:06:37.466Z,24.06
2019-05-22T18:09:11.770Z,24.07
2019-05-22T18:11:45.764Z,24.08
2019-05-22T18:14:20.100Z,23.90
2019-05-22T18:16:54.327Z,24.01
2019-05-22T18:19:28.824Z,24.11
2019-05-22T18:22:03.704Z,24.12
2019-05-22T18:24:38.009Z,24.08
2019-05-22T18:27:12.058Z,24.08
2019-05-22T18:29:46.164Z,24.09
2019-05-22T18:32:20.304Z,24.08
2019-05-22T18:34:54.353Z,24.07
2019-05-22T18:37:28.364Z,24.08
2019-05-22T18:40:02.971Z,24.09
2019-05-22T18:42:37.345Z,24.10
2019-05-22T18:45:12.366Z,23.97
2019-05-22T18:47:46.955Z,23.97
2019-05-22T18:50:21.243Z,24.08
2019-05-22T18:52:55.606Z,24.06
2019-05-22T18:55:29.872Z,24.03
2019-05-22T18:58:04.342Z,24.07
2019-05-22T19:00:38.662Z,24.12
2019-05-22T19:03:12.722Z,24.16
2019-05-22T19:05:47.168Z,24.10
2019-05-22T19:08:21.555Z,24.08
2019-05-22T19:10:55.878Z,24.07
2019-05-22T19:13:30.630Z,24.04
2019-05-22T19:16:05.505Z,23.87
2019-05-22T19:18:39.663Z,23.92
2019-05-22T19:21:13.820Z,24.16
2019-05-22T19:23:48.186Z,24.17
2019-05-22T19:26:22.933Z,24.14
2019-05-22T19:28:57.841Z,24.15
2019-05-22T19:31:32.108Z,24.11
2019-05-22T19:34:06.430Z,24.08
2019-05-22T19:36:40.381Z,24.05
2019-05-22T19:39:14.627Z,24.11
2019-05-22T19:42:01.431Z,24.13
2019-05-22T19:44:25.233Z,24.12
2019-05-22T19:46:59.966Z,23.87
2019-05-22T19:49:35.162Z,23.92
2019-05-22T19:52:09.929Z,24.04
2019-05-22T19:54:44.485Z,24.06
2019-05-22T19:57:18.489Z,24.37
2019-05-22T19:59:52.808Z,24.36
2019-05-22T20:02:27.415Z,24.12
2019-05-22T20:05:01.763Z,23.97
2019-05-22T20:07:39.362Z,23.90
2019-05-22T20:10:14.073Z,23.88
2019-05-22T20:12:48.607Z,23.91
2019-05-22T20:15:23.221Z,23.92
2019-05-22T20:17:57.553Z,23.79
2019-05-22T20:20:31.749Z,23.89
2019-05-22T20:23:06.113Z,24.05
2019-05-22T20:25:40.471Z,24.43
2019-05-22T20:28:14.404Z,24.37
2019-05-22T20:30:49.054Z,24.22
2019-05-22T20:33:26.881Z,24.13
2019-05-22T20:35:59.399Z,24.04
2019-05-22T20:38:33.969Z,24.01
2019-05-22T20:41:08.153Z,23.96
2019-05-22T20:43:42.453Z,23.93
2019-05-22T20:46:19.290Z,23.89
2019-05-22T20:48:57.369Z,23.79
2019-05-22T20:51:31.756Z,23.88
2019-05-22T20:54:07.133Z,24.00
2019-05-22T20:56:44.629Z,23.99
2019-05-22T20:59:19.335Z,24.25
2019-05-22T21:01:53.752Z,24.07
2019-05-22T21:04:27.980Z,23.82
2019-05-22T21:07:06.144Z,23.73
2019-05-22T21:09:40.670Z,23.70
2019-05-22T21:12:14.996Z,23.63
2019-05-22T21:14:49.154Z,23.67
2019-05-22T21:17:23.538Z,23.77
2019-05-22T21:19:59.499Z,23.87
2019-05-22T21:22:34.191Z,24.10
2019-05-22T21:25:09.318Z,24.32
2019-05-22T21:27:44.085Z,24.24
2019-05-22T21:30:19.955Z,24.31
2019-05-22T21:32:54.450Z,24.29
2019-05-22T21:35:29.339Z,24.21
2019-05-22T21:38:04.730Z,24.11
2019-05-22T21:40:39.061Z,24.08
2019-05-22T21:43:13.503Z,24.04
2019-05-22T21:45:47.759Z,24.27
2019-05-22T21:48:22.154Z,24.26
2019-05-22T21:50:56.737Z,23.93
2019-05-22T21:53:31.232Z,23.78
2019-05-22T21:56:06.330Z,23.72
2019-05-22T21:58:40.710Z,23.70
2019-05-22T22:01:24.868Z,23.65
2019-05-22T22:04:06.383Z,23.66
2019-05-22T22:06:40.909Z,23.62
2019-05-22T22:09:16.954Z,23.61
2019-05-22T22:11:51.959Z,23.60
2019-05-22T22:14:27.478Z,23.65
2019-05-22T22:17:03.349Z,23.66
2019-05-22T22:19:38.958Z,23.61
2019-05-22T22:22:16.804Z,23.79
2019-05-22T22:24:52.004Z,24.08
2019-05-22T22:27:26.732Z,23.95
2019-05-22T22:30:01.083Z,23.76
2019-05-22T22:32:36.847Z,23.71
2019-05-22T22:35:14.147Z,23.71
2019-05-22T22:37:48.849Z,23.68
2019-05-22T22:40:27.579Z,23.68
2019-05-22T22:43:04.253Z,23.68
2019-05-22T22:45:45.637Z,23.95
2019-05-22T22:48:23.751Z,23.97
2019-05-22T22:50:58.165Z,23.73
2019-05-22T22:53:33.140Z,23.62
2019-05-22T22:56:10.093Z,23.57
2019-05-22T22:58:44.322Z,23.53
2019-05-22T23:01:24.346Z,23.51
2019-05-22T23:04:01.834Z,23.46
2019-05-22T23:06:36.741Z,23.45
2019-05-22T23:09:13.044Z,23.41
2019-05-22T23:11:49.289Z,23.39
2019-05-22T23:14:23.885Z,23.36
2019-05-22T23:16:58.365Z,23.29
2019-05-22T23:19:42.181Z,23.54
2019-05-22T23:22:18.464Z,23.88
2019-05-22T23:24:53.937Z,23.65
2019-05-22T23:27:28.032Z,23.56
2019-05-22T23:30:03.533Z,23.54
2019-05-22T23:32:38.417Z,23.56
2019-05-22T23:35:13.763Z,23.69
2019-05-22T23:37:47.760Z,23.92
2019-05-22T23:40:28.228Z,23.68
2019-05-22T23:43:02.806Z,23.52
2019-05-22T23:45:36.887Z,23.42
2019-05-22T23:48:18.124Z,23.35
2019-05-22T23:50:52.933Z,23.31
2019-05-22T23:53:27.745Z,23.29
2019-05-22T23:56:02.275Z,23.43
2019-05-22T23:58:51.507Z,23.86
